Flight Track Log - Related Links

Times and Time Zones

All times are in EDT time to prevent confusion due to time zone crossing. See the CTL13 flight status page for this flight to view local times or setup timezone preferences in your user account.

Time Position Orientation Groundspeed Altitude Reporting Facility
EDT Latitude Longitude Course Direction KTS MPH feet Rate Location/Type
Tue 08:34:43 PM 39.9833 -86.3333 329° Northwest 190 219 2,900  Level Indianapolis TRACON
Tue 08:35:15 PM 40.0086 -86.3494 334° Northwest 184 212 3,100 472 Climbing Chicago Center
Tue 08:36:12 PM 40.0456 -86.3783 329° Northwest 183 211 3,600 458 Climbing Indianapolis Center
Tue 08:37:13 PM 40.0883 -86.4128 328° Northwest 182 209 4,000 195 Climbing Indianapolis Center
Tue 08:38:15 PM 40.1322 -86.4489 328° Northwest 183 211 4,000  Level Indianapolis Center
Tue 08:39:17 PM 40.1803 -86.4917 326° Northwest 181 208 4,000  Level Indianapolis Center
Tue 08:40:00 PM 40.1544 -86.5441 329° Northwest  Level FlightAware Approximate
Tue 08:40:18 PM 40.2244 -86.5247 330° Northwest 181 208 4,000  Level Indianapolis Center
Tue 08:40:39 PM 40.2358 -86.5378 319° Northwest 181 208 4,000  Level Chicago Center
Tue 08:41:27 PM 40.2681 -86.5581 334° Northwest 181 208 4,000  Level Chicago Center
Tue 08:42:40 PM 40.3231 -86.6031 328° Northwest 180 207 4,000  Level Chicago Center
Tue 08:43:31 PM 40.3617 -86.6297 332° Northwest 179 206 4,000  Level Chicago Center
Tue 08:44:41 PM 40.4106 -86.6658 331° Northwest 179 206 4,000 49 Level Chicago Center
Tue 08:45:34 PM 40.4492 -86.6936 331° Northwest 178 205 4,100  Climbing Chicago Center
Tue 08:46:42 PM 40.4978 -86.7367 326° Northwest 177 204 4,000 -48 Descending Chicago Center
Tue 08:47:38 PM 40.5322 -86.7603 332° Northwest 173 199 4,000  Level Chicago Center
Tue 08:48:40 PM 40.5722 -86.7911 330° Northwest 170 196 4,000 145 Level Chicago Center
Tue 08:49:42 PM 40.6211 -86.8303 329° Northwest 175 201 4,300  Climbing Chicago Center
Tue 08:50:44 PM 40.6569 -86.8600 328° Northwest 156 180 4,000 -145 Descending Chicago Center
Tue 08:51:46 PM 40.6947 -86.8928 327° Northwest 160 184 4,000  Level Chicago Center
Tue 08:52:48 PM 40.7394 -86.9244 332° Northwest 166 191 4,000 49 Level Chicago Center
Tue 08:53:49 PM 40.7781 -86.9522 331° Northwest 159 183 4,100  Climbing Chicago Center
Tue 08:54:51 PM 40.8058 -86.9825 320° Northwest 136 157 4,000 -48 Descending Chicago Center
Tue 08:55:53 PM 40.8419 -87.0094 331° Northwest 141 162 4,000  Level Chicago Center
Tue 08:56:55 PM 40.8814 -87.0394 330° Northwest 153 176 4,000 -48 Level Chicago Center
Tue 08:57:57 PM 40.9217 -87.0714 329° Northwest 161 185 3,900  Descending Chicago Center
Tue 08:58:59 PM 40.9686 -87.1094 329° Northwest 165 190 4,000 97 Climbing Chicago Center
Tue 09:00:01 PM 41.0031 -87.1492 319° Northwest 166 191 4,100  Climbing Chicago Center
Tue 09:01:03 PM 41.0350 -87.1917 315° West 165 190 4,000 -48 Descending Chicago Center
Tue 09:02:05 PM 41.0661 -87.2344 314° West 164 189 4,000  Level Chicago Center
Tue 09:03:07 PM 41.1008 -87.2725 320° Northwest 164 189 4,000  Level Chicago Center
Tue 09:04:09 PM 41.1508 -87.3064 333° Northwest 167 192 4,000  Level Chicago Center
Tue 09:05:11 PM 41.1906 -87.3358 331° Northwest 166 191 4,000  Level Chicago Center
Tue 09:06:13 PM 41.2306 -87.3656 331° Northwest 166 191 4,000  Level Chicago Center
Tue 09:07:15 PM 41.2708 -87.3839 341° North 159 183 4,000  Level Chicago Center
Tue 09:08:17 PM 41.3147 -87.3953 349° North 158 182 4,000 -48 Level Chicago Center
Tue 09:09:19 PM 41.3644 -87.4122 346° North 157 181 3,900  Descending Chicago Center
Tue 09:10:21 PM 41.4064 -87.4264 346° North 156 180 4,000 48 Climbing Chicago Center
Tue 09:11:23 PM 41.4467 -87.4250 North 157 181 4,000 -48 Level Chicago Center
Tue 09:12:26 PM 41.4844 -87.4011 25° Northeast 154 177 3,900 -48 Descending Chicago Center
Tue 09:13:28 PM 41.5225 -87.4150 345° North 153 176 3,900 32 Level Chicago Center
Tue 09:15:32 PM 41.5903 -87.4783 325° Northwest 141 162 4,000 -161 Climbing Chicago Center
Tue 09:16:34 PM 41.6167 -87.5158 313° West 139 160 3,400 -290 Descending Chicago Center
Tue 09:17:36 PM 41.6414 -87.5511 313° West 136 157 3,400 -145 Level Chicago Center
Tue 09:18:38 PM 41.6678 -87.5900 312° West 137 158 3,100 -362 Descending Chicago Center
Tue 09:19:32 PM 41.7000 -87.6333 315° West 144 166 2,700 -444 Descending Chicago TRACON
Tue 09:20:26 PM 41.7167 -87.6500 323° Northwest 117 135 2,300 -550 Descending Chicago TRACON
Tue 09:21:32 PM 41.7500 -87.7000 312° West 122 140 1,600 -550 Descending Chicago TRACON
Tue 09:22:26 PM 41.7667 -87.7333 304° West 123 142 1,200 -444 Descending Chicago TRACON
Tue 09:24:00 PM 41.7833 -87.7500 334° Northwest  Level FlightAware Approximate
Tue 09:31:00 PM 41.7860 -87.7524 334° Northwest  Level Estimated

Login

Don't have an account? Register now (free) for customized features, flight alerts, and more!